< < Back
Terminal Aerodrome Forecast


Current Version              Previous Versions:   1  2  3  4  5  6  7  8  9  

Terminal Aerodrome Forecast

574
FTUS44 KBMX 221200 AAA
TAFBHM
TAF AMD
KBHM 221241Z 2213/2312 08007KT P6SM VCSH SCT009 BKN035
     FM221500 10006KT P6SM VCSH BKN035
     FM230100 03002KT P6SM OVC100=



Latest METAR

874
SAUS70 KWBC 221700 RRE
MTRBHM
METAR KBHM 221653Z 12006KT 10SM BKN021 BKN250 27/21 A3013 RMK AO2 SLP194
T02720211


USA.gov is the U.S. government's official web portal to all federal, state and local government web resources and services.